A- A+ FrançaisEnglishEspañol中国

le plus proche LFBT Tarbes-Lourdes-PyrénéesLFQA Reims-PrunayLFLC Clermont-Ferrand-Aulnat LFAT Le-Touquet-Paris-Plage

manche à air

La météo aéronautique pour les pilotes, la préparation du vol avec les METAR (METeorological Aerodrome Report, message d'observation des conditions météorologiques pour l'aviation) et Les TAF (Terminal Aerodrome Forecast : message de prévision à court terme des conditions météorologiques pour l'aviation). Et les autres ressources comme les VAC (Visual Approch Chart) et les NOTAM (Notice To Airman) pour préprer les vols.

Aéroport Boscombe Down (Royaume-Uni) / OACI EGDM

L'altitude de l'aéroport Boscombe Down est de 124 m=407 ft. Il est situé à proximité de Amesbury (Royaume-Uni). La météo générale à 5 jours est disponible pour Figheldean situé à 8.4 km.

METAR de l'aéroport Boscombe Down - EGDM

EGDM 131420Z 16006KT 9999 FEW020 BKN100 BKN200 08/03 Q0996 NOSIG RMK BLU BLU

Décodage du METAR de l'aéroport Boscombe Down (GB)

METAR émis par EGDM le mercredi 13 novembre 2019 à 14:20 heure TU. Attention ce METAR est obsolète car il a été émis il y a 2 heure et 33 minutes.

La visibilité est de supérieure à 10 km=supérieure à 6.2 sm.

La température est de 8°C=46 °F et le point rosée est de 3°C=37 °F . Ce qui correspond à 71% d'humidité relative.

Le QNH est de 996 hPa=29.41 inHg

Vent de 6 kt=11 km/h, orienté à 160°.

Nuages : Quelques nuages à 2000 ft=610 mètres. Couverture nuageuse fragmentée à 10000 ft=3050 mètres. Couverture nuageuse fragmentée à 20000 ft=6100 mètres.

Aucun changement significatif dans les deux heures à venir remarques BLU BLU

TAF de l'aéroport Boscombe Down - EGDM

EGDM 131057Z 1312/1319 19008KT 9999 FEW020 PROB30 TEMPO 1312/1316 SCT020 BECMG 1316/1319 7000 -RA BKN015 PROB30 TEMPO 1317/1319 15015G25KT 4000 RA BKN010

EGDM 131057Z 1312/1319 19008KT 9999 quelques nuages à 020 probabilité de 30% d'avoir temporairement 1312/1316 nuages épars à 020 devenant 1316/1319 7000 faible RA couverture nuageuse fragmentée à 015 probabilité de 30% d'avoir temporairement 1317/1319 15015G25KT 4000 pluie couverture nuageuse fragmentée à 010

Aéroport à proximité de Boscombe Down

Météo générale à 5 jours à Figheldean (8.4 km)EGLS Aéroport Old Sarum (6 km)EGDN Aéroport Netheravon (11 km)EGHO Aéroport Thruxton (12 km)EGVP Aéroport Middle Wallop (13 km)EGHA Aéroport Compton Abbas (35 km)EGHI Aéroport Southampton (35 km)

Vue aérienne de l'aéroport Boscombe Down

NOTAM de l'aéroport Boscombe Down

Les NOTAM sont fournis sans aucune garantie de leur actualité. Le pilote est le seul responsable de la vérification de sa validité avant de l'utiliser opérationnellement pour préparer un vol ou l'utiliser lors de sa navigation.

Pas de NOTAM

Sources des données